sensor_id;sensor_type;location;lat;lon;timestamp;pressure;altitude;pressure_sealevel;temperature;humidity
77288;BME280;66345;42.694;23.346;2023-06-24T00:00:59;95477.63;;;22.33;63.43
77288;BME280;66345;42.694;23.346;2023-06-24T00:03:24;95480.88;;;22.35;63.08
77288;BME280;66345;42.694;23.346;2023-06-24T00:05:49;95479.84;;;22.41;63.24
77288;BME280;66345;42.694;23.346;2023-06-24T00:08:18;95476.56;;;22.34;63.46
77288;BME280;66345;42.694;23.346;2023-06-24T00:10:47;95483.84;;;22.34;63.75
77288;BME280;66345;42.694;23.346;2023-06-24T00:13:13;95474.94;;;22.33;63.47
77288;BME280;66345;42.694;23.346;2023-06-24T00:15:40;95480.66;;;22.37;63.42
77288;BME280;66345;42.694;23.346;2023-06-24T00:18:12;95477.59;;;22.28;63.75
77288;BME280;66345;42.694;23.346;2023-06-24T00:20:38;95481.06;;;22.19;63.73
77288;BME280;66345;42.694;23.346;2023-06-24T00:23:03;95471.59;;;22.16;64.10
77288;BME280;66345;42.694;23.346;2023-06-24T00:25:29;95479.94;;;22.09;64.42
77288;BME280;66345;42.694;23.346;2023-06-24T00:27:55;95481.84;;;22.09;64.63
77288;BME280;66345;42.694;23.346;2023-06-24T00:30:22;95481.84;;;22.14;63.96
77288;BME280;66345;42.694;23.346;2023-06-24T00:32:47;95478.06;;;22.10;63.74
77288;BME280;66345;42.694;23.346;2023-06-24T00:35:13;95484.31;;;22.21;63.60
77288;BME280;66345;42.694;23.346;2023-06-24T00:37:39;95476.44;;;22.09;63.38
77288;BME280;66345;42.694;23.346;2023-06-24T00:40:05;95482.06;;;22.07;64.38
77288;BME280;66345;42.694;23.346;2023-06-24T00:42:32;95489.41;;;22.12;63.49
77288;BME280;66345;42.694;23.346;2023-06-24T00:44:57;95483.59;;;22.30;63.37
77288;BME280;66345;42.694;23.346;2023-06-24T00:47:22;95476.56;;;22.29;63.34
77288;BME280;66345;42.694;23.346;2023-06-24T00:49:49;95473.47;;;22.10;63.91
77288;BME280;66345;42.694;23.346;2023-06-24T00:52:14;95475.22;;;21.95;64.06
77288;BME280;66345;42.694;23.346;2023-06-24T00:54:42;95465.72;;;21.87;64.59
77288;BME280;66345;42.694;23.346;2023-06-24T00:57:07;95464.09;;;21.91;64.02
77288;BME280;66345;42.694;23.346;2023-06-24T00:59:33;95470.56;;;21.85;64.55
77288;BME280;66345;42.694;23.346;2023-06-24T01:01:59;95457.25;;;21.73;64.70
77288;BME280;66345;42.694;23.346;2023-06-24T01:04:30;95468.59;;;21.75;64.95
77288;BME280;66345;42.694;23.346;2023-06-24T01:06:56;95464.81;;;21.76;64.86
77288;BME280;66345;42.694;23.346;2023-06-24T01:09:22;95461.06;;;21.77;64.59
77288;BME280;66345;42.694;23.346;2023-06-24T01:11:48;95463.66;;;21.67;64.95
77288;BME280;66345;42.694;23.346;2023-06-24T01:14:14;95460.47;;;21.75;64.78
77288;BME280;66345;42.694;23.346;2023-06-24T01:16:48;95446.97;;;21.70;65.02
77288;BME280;66345;42.694;23.346;2023-06-24T01:33:50;95458.38;;;21.77;65.92
77288;BME280;66345;42.694;23.346;2023-06-24T01:36:18;95459.41;;;21.71;65.11
77288;BME280;66345;42.694;23.346;2023-06-24T01:38:50;95462.09;;;21.71;65.09
77288;BME280;66345;42.694;23.346;2023-06-24T01:41:21;95456.97;;;21.75;65.84
77288;BME280;66345;42.694;23.346;2023-06-24T01:43:48;95465.66;;;21.82;66.58
77288;BME280;66345;42.694;23.346;2023-06-24T01:46:21;95472.16;;;21.81;66.44
77288;BME280;66345;42.694;23.346;2023-06-24T01:48:47;95475.00;;;21.64;66.66
77288;BME280;66345;42.694;23.346;2023-06-24T01:51:17;95492.78;;;21.60;67.27
77288;BME280;66345;42.694;23.346;2023-06-24T01:53:48;95495.34;;;21.40;68.05
77288;BME280;66345;42.694;23.346;2023-06-24T01:56:16;95492.59;;;21.13;69.53
77288;BME280;66345;42.694;23.346;2023-06-24T01:58:43;95491.69;;;21.02;69.63
77288;BME280;66345;42.694;23.346;2023-06-24T02:01:10;95492.28;;;20.82;70.31
77288;BME280;66345;42.694;23.346;2023-06-24T02:03:38;95495.22;;;20.81;70.92
77288;BME280;66345;42.694;23.346;2023-06-24T02:06:06;95506.84;;;20.81;71.27
77288;BME280;66345;42.694;23.346;2023-06-24T02:08:36;95500.19;;;20.89;70.71
77288;BME280;66345;42.694;23.346;2023-06-24T02:11:03;95509.53;;;20.81;71.32
77288;BME280;66345;42.694;23.346;2023-06-24T02:13:31;95507.78;;;20.48;72.10
77288;BME280;66345;42.694;23.346;2023-06-24T02:16:04;95503.44;;;20.47;72.14
77288;BME280;66345;42.694;23.346;2023-06-24T02:18:32;95500.31;;;20.55;72.10
77288;BME280;66345;42.694;23.346;2023-06-24T02:21:00;95502.97;;;20.50;72.71
77288;BME280;66345;42.694;23.346;2023-06-24T02:23:27;95514.38;;;20.79;71.58
77288;BME280;66345;42.694;23.346;2023-06-24T02:25:53;95517.88;;;20.80;71.79
77288;BME280;66345;42.694;23.346;2023-06-24T02:28:19;95523.91;;;20.87;71.03
77288;BME280;66345;42.694;23.346;2023-06-24T02:30:46;95521.84;;;20.99;70.64
77288;BME280;66345;42.694;23.346;2023-06-24T02:33:12;95530.47;;;20.96;71.20
77288;BME280;66345;42.694;23.346;2023-06-24T02:35:38;95542.81;;;20.92;70.91
77288;BME280;66345;42.694;23.346;2023-06-24T02:38:03;95543.91;;;20.91;71.21
77288;BME280;66345;42.694;23.346;2023-06-24T02:40:29;95546.97;;;20.77;72.68
77288;BME280;66345;42.694;23.346;2023-06-24T02:42:56;95561.59;;;20.82;72.71
77288;BME280;66345;42.694;23.346;2023-06-24T02:45:22;95554.88;;;20.84;72.74
77288;BME280;66345;42.694;23.346;2023-06-24T02:47:48;95549.63;;;20.94;72.10
77288;BME280;66345;42.694;23.346;2023-06-24T02:50:15;95554.69;;;20.91;72.38
77288;BME280;66345;42.694;23.346;2023-06-24T02:52:41;95548.00;;;20.93;72.90
77288;BME280;66345;42.694;23.346;2023-06-24T02:55:07;95551.44;;;20.89;73.05
77288;BME280;66345;42.694;23.346;2023-06-24T02:57:34;95558.53;;;20.95;72.65
77288;BME280;66345;42.694;23.346;2023-06-24T03:00:04;95560.09;;;20.91;72.50
77288;BME280;66345;42.694;23.346;2023-06-24T03:02:41;95562.66;;;20.81;73.30
77288;BME280;66345;42.694;23.346;2023-06-24T03:05:09;95572.56;;;20.75;73.59
77288;BME280;66345;42.694;23.346;2023-06-24T03:07:36;95562.41;;;20.60;74.59
77288;BME280;66345;42.694;23.346;2023-06-24T03:10:03;95552.03;;;20.52;74.59
77288;BME280;66345;42.694;23.346;2023-06-24T03:12:30;95559.72;;;20.43;75.09
77288;BME280;66345;42.694;23.346;2023-06-24T03:14:55;95570.28;;;20.45;75.63
77288;BME280;66345;42.694;23.346;2023-06-24T03:17:21;95572.03;;;20.39;75.65
77288;BME280;66345;42.694;23.346;2023-06-24T03:19:46;95562.19;;;20.28;76.56
77288;BME280;66345;42.694;23.346;2023-06-24T03:22:12;95560.22;;;20.40;75.46
77288;BME280;66345;42.694;23.346;2023-06-24T03:24:37;95553.94;;;20.52;75.47
77288;BME280;66345;42.694;23.346;2023-06-24T03:27:03;95561.34;;;20.83;74.27
77288;BME280;66345;42.694;23.346;2023-06-24T03:29:28;95568.72;;;20.93;73.54
77288;BME280;66345;42.694;23.346;2023-06-24T03:31:54;95579.84;;;20.96;73.54
77288;BME280;66345;42.694;23.346;2023-06-24T03:34:19;95582.03;;;20.99;73.59
77288;BME280;66345;42.694;23.346;2023-06-24T03:36:45;95595.28;;;21.01;73.07
77288;BME280;66345;42.694;23.346;2023-06-24T03:39:10;95589.75;;;20.91;74.16
77288;BME280;66345;42.694;23.346;2023-06-24T03:41:36;95588.75;;;20.97;74.91
77288;BME280;66345;42.694;23.346;2023-06-24T03:44:02;95594.53;;;20.84;74.50
77288;BME280;66345;42.694;23.346;2023-06-24T03:46:27;95594.22;;;21.02;73.30
77288;BME280;66345;42.694;23.346;2023-06-24T03:48:58;95600.19;;;21.04;74.15
77288;BME280;66345;42.694;23.346;2023-06-24T03:51:24;95603.50;;;21.11;73.93
77288;BME280;66345;42.694;23.346;2023-06-24T03:53:49;95599.00;;;20.95;73.83
77288;BME280;66345;42.694;23.346;2023-06-24T03:56:15;95598.38;;;20.88;73.58
77288;BME280;66345;42.694;23.346;2023-06-24T03:58:41;95588.75;;;20.97;73.41
77288;BME280;66345;42.694;23.346;2023-06-24T04:01:06;95596.22;;;21.33;73.06
77288;BME280;66345;42.694;23.346;2023-06-24T04:03:31;95601.25;;;21.47;72.87
77288;BME280;66345;42.694;23.346;2023-06-24T04:05:57;95601.94;;;21.37;72.79
77288;BME280;66345;42.694;23.346;2023-06-24T04:08:23;95604.97;;;21.46;71.77
77288;BME280;66345;42.694;23.346;2023-06-24T04:10:55;95598.03;;;21.50;71.26
77288;BME280;66345;42.694;23.346;2023-06-24T04:13:20;95605.75;;;21.41;71.50
77288;BME280;66345;42.694;23.346;2023-06-24T04:15:46;95607.03;;;21.33;72.47
77288;BME280;66345;42.694;23.346;2023-06-24T04:18:11;95595.53;;;21.43;71.72
77288;BME280;66345;42.694;23.346;2023-06-24T04:20:37;95592.91;;;21.53;70.79
77288;BME280;66345;42.694;23.346;2023-06-24T04:23:03;95588.31;;;21.81;70.15
77288;BME280;66345;42.694;23.346;2023-06-24T04:25:29;95585.69;;;22.18;69.01
77288;BME280;66345;42.694;23.346;2023-06-24T04:27:54;95591.47;;;22.00;70.15
77288;BME280;66345;42.694;23.346;2023-06-24T04:30:20;95588.72;;;21.95;69.31
77288;BME280;66345;42.694;23.346;2023-06-24T04:32:45;95579.28;;;22.29;68.73
77288;BME280;66345;42.694;23.346;2023-06-24T04:35:10;95577.41;;;22.30;67.64
77288;BME280;66345;42.694;23.346;2023-06-24T04:37:36;95582.44;;;22.58;66.67
77288;BME280;66345;42.694;23.346;2023-06-24T04:40:01;95585.66;;;22.97;65.86
77288;BME280;66345;42.694;23.346;2023-06-24T04:42:27;95585.78;;;23.38;64.43
77288;BME280;66345;42.694;23.346;2023-06-24T04:44:53;95587.00;;;24.14;61.39
77288;BME280;66345;42.694;23.346;2023-06-24T04:47:18;95591.31;;;23.74;62.80
77288;BME280;66345;42.694;23.346;2023-06-24T04:49:44;95583.03;;;25.01;58.42
77288;BME280;66345;42.694;23.346;2023-06-24T04:52:11;95587.66;;;25.60;57.10
77288;BME280;66345;42.694;23.346;2023-06-24T04:54:36;95598.41;;;25.36;57.14
77288;BME280;66345;42.694;23.346;2023-06-24T04:57:02;95602.19;;;25.90;55.35
77288;BME280;66345;42.694;23.346;2023-06-24T04:59:28;95595.09;;;25.50;56.62
77288;BME280;66345;42.694;23.346;2023-06-24T05:01:53;95590.44;;;25.55;56.11
77288;BME280;66345;42.694;23.346;2023-06-24T05:04:19;95590.34;;;26.44;53.81
77288;BME280;66345;42.694;23.346;2023-06-24T05:06:44;95590.78;;;25.88;55.11
77288;BME280;66345;42.694;23.346;2023-06-24T05:09:09;95587.50;;;27.55;50.46
77288;BME280;66345;42.694;23.346;2023-06-24T05:11:40;95579.19;;;27.22;50.81
77288;BME280;66345;42.694;23.346;2023-06-24T05:14:05;95590.03;;;27.89;49.04
77288;BME280;66345;42.694;23.346;2023-06-24T05:16:31;95584.41;;;28.97;46.11
77288;BME280;66345;42.694;23.346;2023-06-24T05:18:56;95581.63;;;29.66;44.03
77288;BME280;66345;42.694;23.346;2023-06-24T05:21:22;95576.25;;;30.10;42.97
77288;BME280;66345;42.694;23.346;2023-06-24T05:23:47;95581.84;;;30.50;41.53
77288;BME280;66345;42.694;23.346;2023-06-24T05:26:13;95579.31;;;30.31;42.26
77288;BME280;66345;42.694;23.346;2023-06-24T05:28:38;95573.66;;;30.59;42.41
77288;BME280;66345;42.694;23.346;2023-06-24T05:31:04;95575.09;;;31.18;40.57
77288;BME280;66345;42.694;23.346;2023-06-24T05:33:29;95574.50;;;32.05;38.98
77288;BME280;66345;42.694;23.346;2023-06-24T05:35:55;95579.50;;;32.37;36.85
77288;BME280;66345;42.694;23.346;2023-06-24T05:38:20;95580.94;;;32.00;37.56
77288;BME280;66345;42.694;23.346;2023-06-24T05:40:46;95581.31;;;31.02;39.47
77288;BME280;66345;42.694;23.346;2023-06-24T05:43:11;95586.44;;;31.91;38.08
77288;BME280;66345;42.694;23.346;2023-06-24T05:45:37;95590.84;;;29.70;42.10
77288;BME280;66345;42.694;23.346;2023-06-24T05:48:03;95585.59;;;30.09;42.41
77288;BME280;66345;42.694;23.346;2023-06-24T05:50:28;95586.19;;;31.13;39.88
77288;BME280;66345;42.694;23.346;2023-06-24T05:52:54;95580.34;;;32.84;36.81
77288;BME280;66345;42.694;23.346;2023-06-24T05:55:19;95566.69;;;32.24;37.14
77288;BME280;66345;42.694;23.346;2023-06-24T05:57:45;95570.44;;;32.02;38.11
77288;BME280;66345;42.694;23.346;2023-06-24T06:00:10;95571.50;;;31.09;39.22
77288;BME280;66345;42.694;23.346;2023-06-24T06:02:36;95573.50;;;31.83;38.99
77288;BME280;66345;42.694;23.346;2023-06-24T06:05:02;95575.66;;;30.98;39.38
77288;BME280;66345;42.694;23.346;2023-06-24T06:07:28;95567.25;;;29.96;41.01
77288;BME280;66345;42.694;23.346;2023-06-24T06:09:53;95564.84;;;29.95;41.53
77288;BME280;66345;42.694;23.346;2023-06-24T06:12:19;95560.75;;;31.21;39.63
77288;BME280;66345;42.694;23.346;2023-06-24T06:14:44;95564.78;;;32.07;36.57
77288;BME280;66345;42.694;23.346;2023-06-24T06:17:11;95564.84;;;32.89;35.51
77288;BME280;66345;42.694;23.346;2023-06-24T06:19:37;95568.25;;;32.77;35.21
77288;BME280;66345;42.694;23.346;2023-06-24T06:22:05;95569.13;;;33.07;35.21
77288;BME280;66345;42.694;23.346;2023-06-24T06:24:30;95562.28;;;33.51;33.87
77288;BME280;66345;42.694;23.346;2023-06-24T06:26:57;95557.97;;;33.42;34.48
77288;BME280;66345;42.694;23.346;2023-06-24T06:29:22;95560.00;;;34.04;32.96
77288;BME280;66345;42.694;23.346;2023-06-24T06:31:48;95568.63;;;33.13;34.46
77288;BME280;66345;42.694;23.346;2023-06-24T06:34:13;95558.19;;;34.62;32.45
77288;BME280;66345;42.694;23.346;2023-06-24T06:36:39;95561.81;;;34.99;31.09
77288;BME280;66345;42.694;23.346;2023-06-24T06:39:04;95563.25;;;35.54;30.40
77288;BME280;66345;42.694;23.346;2023-06-24T06:41:30;95573.31;;;35.99;29.54
77288;BME280;66345;42.694;23.346;2023-06-24T06:43:55;95582.47;;;33.55;34.26
77288;BME280;66345;42.694;23.346;2023-06-24T06:46:21;95572.28;;;35.79;30.23
77288;BME280;66345;42.694;23.346;2023-06-24T06:48:46;95575.25;;;37.26;28.05
77288;BME280;66345;42.694;23.346;2023-06-24T06:51:12;95571.81;;;36.57;29.57
77288;BME280;66345;42.694;23.346;2023-06-24T06:53:38;95567.84;;;35.62;30.77
77288;BME280;66345;42.694;23.346;2023-06-24T06:56:03;95565.38;;;37.60;27.72
77288;BME280;66345;42.694;23.346;2023-06-24T06:58:29;95571.53;;;37.85;27.30
77288;BME280;66345;42.694;23.346;2023-06-24T07:00:54;95568.19;;;38.15;27.23
77288;BME280;66345;42.694;23.346;2023-06-24T07:03:19;95568.16;;;38.30;27.15
77288;BME280;66345;42.694;23.346;2023-06-24T07:05:45;95565.22;;;39.04;26.13
77288;BME280;66345;42.694;23.346;2023-06-24T07:08:11;95571.19;;;36.20;29.99
77288;BME280;66345;42.694;23.346;2023-06-24T07:10:37;95572.09;;;38.49;26.32
77288;BME280;66345;42.694;23.346;2023-06-24T07:13:02;95570.78;;;39.04;25.86
77288;BME280;66345;42.694;23.346;2023-06-24T07:15:28;95573.56;;;38.62;25.78
77288;BME280;66345;42.694;23.346;2023-06-24T07:17:53;95573.28;;;37.58;27.87
77288;BME280;66345;42.694;23.346;2023-06-24T07:20:20;95574.44;;;37.57;28.13
77288;BME280;66345;42.694;23.346;2023-06-24T07:22:45;95578.03;;;37.93;26.83
77288;BME280;66345;42.694;23.346;2023-06-24T07:25:11;95578.78;;;38.09;26.17
77288;BME280;66345;42.694;23.346;2023-06-24T07:27:37;95571.56;;;37.22;27.43
77288;BME280;66345;42.694;23.346;2023-06-24T07:30:04;95563.16;;;39.70;24.50
77288;BME280;66345;42.694;23.346;2023-06-24T07:32:30;95557.31;;;40.05;23.65
77288;BME280;66345;42.694;23.346;2023-06-24T07:34:55;95562.97;;;40.12;23.54
77288;BME280;66345;42.694;23.346;2023-06-24T07:37:20;95567.75;;;39.59;24.36
77288;BME280;66345;42.694;23.346;2023-06-24T07:39:46;95563.16;;;38.59;26.15
77288;BME280;66345;42.694;23.346;2023-06-24T07:42:11;95559.28;;;38.83;26.20
77288;BME280;66345;42.694;23.346;2023-06-24T07:44:37;95563.88;;;37.15;27.87
77288;BME280;66345;42.694;23.346;2023-06-24T07:47:04;95558.28;;;37.43;27.02
77288;BME280;66345;42.694;23.346;2023-06-24T07:49:31;95554.09;;;40.33;23.99
77288;BME280;66345;42.694;23.346;2023-06-24T07:51:56;95557.69;;;39.05;24.87
77288;BME280;66345;42.694;23.346;2023-06-24T07:54:22;95565.28;;;40.37;23.14
77288;BME280;66345;42.694;23.346;2023-06-24T07:56:47;95553.78;;;40.42;23.04
77288;BME280;66345;42.694;23.346;2023-06-24T07:59:13;95553.56;;;40.54;23.13
77288;BME280;66345;42.694;23.346;2023-06-24T08:01:38;95553.25;;;39.99;24.20
77288;BME280;66345;42.694;23.346;2023-06-24T08:04:04;95559.63;;;39.01;25.85
77288;BME280;66345;42.694;23.346;2023-06-24T08:06:29;95558.88;;;40.03;25.06
77288;BME280;66345;42.694;23.346;2023-06-24T08:08:54;95567.38;;;42.28;21.95
77288;BME280;66345;42.694;23.346;2023-06-24T08:11:20;95556.03;;;41.96;22.17
77288;BME280;66345;42.694;23.346;2023-06-24T08:13:47;95561.59;;;41.37;22.37
77288;BME280;66345;42.694;23.346;2023-06-24T08:16:14;95556.28;;;40.51;23.66
77288;BME280;66345;42.694;23.346;2023-06-24T08:18:40;95558.63;;;41.19;23.19
77288;BME280;66345;42.694;23.346;2023-06-24T08:21:05;95556.03;;;38.39;25.73
77288;BME280;66345;42.694;23.346;2023-06-24T08:23:31;95559.50;;;41.27;22.55
77288;BME280;66345;42.694;23.346;2023-06-24T08:25:56;95556.22;;;41.69;21.90
77288;BME280;66345;42.694;23.346;2023-06-24T08:28:21;95548.13;;;39.75;24.09
77288;BME280;66345;42.694;23.346;2023-06-24T08:30:47;95544.81;;;40.22;23.75
77288;BME280;66345;42.694;23.346;2023-06-24T08:33:12;95536.75;;;39.83;25.25
77288;BME280;66345;42.694;23.346;2023-06-24T08:35:38;95543.06;;;40.74;22.97
77288;BME280;66345;42.694;23.346;2023-06-24T08:38:03;95544.19;;;41.54;21.55
77288;BME280;66345;42.694;23.346;2023-06-24T08:40:29;95542.28;;;41.18;22.63
77288;BME280;66345;42.694;23.346;2023-06-24T08:42:54;95540.56;;;41.02;23.02
77288;BME280;66345;42.694;23.346;2023-06-24T08:45:20;95528.84;;;40.86;23.36
77288;BME280;66345;42.694;23.346;2023-06-24T08:47:47;95522.16;;;43.24;20.37
77288;BME280;66345;42.694;23.346;2023-06-24T08:50:16;95529.75;;;40.94;22.65
77288;BME280;66345;42.694;23.346;2023-06-24T08:52:51;95526.13;;;40.53;22.76
77288;BME280;66345;42.694;23.346;2023-06-24T08:55:22;95523.50;;;42.21;20.25
77288;BME280;66345;42.694;23.346;2023-06-24T08:57:48;95527.44;;;41.51;21.54
77288;BME280;66345;42.694;23.346;2023-06-24T09:00:14;95526.88;;;39.36;23.83
77288;BME280;66345;42.694;23.346;2023-06-24T09:02:39;95519.94;;;41.62;21.63
77288;BME280;66345;42.694;23.346;2023-06-24T09:05:06;95518.19;;;41.36;22.03
77288;BME280;66345;42.694;23.346;2023-06-24T09:07:32;95509.28;;;42.58;20.70
77288;BME280;66345;42.694;23.346;2023-06-24T09:09:57;95514.41;;;41.66;21.90
77288;BME280;66345;42.694;23.346;2023-06-24T09:12:24;95509.94;;;37.41;27.13
77288;BME280;66345;42.694;23.346;2023-06-24T09:14:51;95508.88;;;40.06;23.69
77288;BME280;66345;42.694;23.346;2023-06-24T09:17:17;95500.84;;;41.09;22.88
77288;BME280;66345;42.694;23.346;2023-06-24T09:19:43;95505.13;;;40.25;23.68
77288;BME280;66345;42.694;23.346;2023-06-24T09:22:09;95506.78;;;40.30;23.36
77288;BME280;66345;42.694;23.346;2023-06-24T09:24:54;95512.03;;;40.05;24.46
77288;BME280;66345;42.694;23.346;2023-06-24T09:27:19;95518.06;;;40.81;22.74
77288;BME280;66345;42.694;23.346;2023-06-24T09:29:46;95506.53;;;42.73;20.29
77288;BME280;66345;42.694;23.346;2023-06-24T09:32:12;95516.56;;;43.24;19.41
77288;BME280;66345;42.694;23.346;2023-06-24T09:34:38;95513.66;;;40.80;22.27
77288;BME280;66345;42.694;23.346;2023-06-24T09:37:04;95508.91;;;41.21;22.64
77288;BME280;66345;42.694;23.346;2023-06-24T09:39:37;95507.97;;;41.07;22.06
77288;BME280;66345;42.694;23.346;2023-06-24T09:42:05;95505.84;;;41.99;21.83
77288;BME280;66345;42.694;23.346;2023-06-24T09:44:31;95510.63;;;40.89;21.98
77288;BME280;66345;42.694;23.346;2023-06-24T09:46:57;95511.84;;;40.58;22.67
77288;BME280;66345;42.694;23.346;2023-06-24T09:49:23;95509.22;;;41.68;21.96
77288;BME280;66345;42.694;23.346;2023-06-24T09:51:58;95511.78;;;43.56;19.38
77288;BME280;66345;42.694;23.346;2023-06-24T09:54:27;95510.97;;;43.24;20.35
77288;BME280;66345;42.694;23.346;2023-06-24T09:56:59;95500.94;;;42.73;20.74
77288;BME280;66345;42.694;23.346;2023-06-24T09:59:26;95504.31;;;42.12;21.73
77288;BME280;66345;42.694;23.346;2023-06-24T10:01:53;95491.22;;;40.99;21.98
77288;BME280;66345;42.694;23.346;2023-06-24T10:04:21;95486.31;;;41.34;22.81
77288;BME280;66345;42.694;23.346;2023-06-24T10:06:47;95484.63;;;43.32;19.79
77288;BME280;66345;42.694;23.346;2023-06-24T10:09:13;95483.38;;;42.76;20.06
77288;BME280;66345;42.694;23.346;2023-06-24T10:11:45;95479.81;;;43.57;19.24
77288;BME280;66345;42.694;23.346;2023-06-24T10:14:10;95485.00;;;41.20;21.61
77288;BME280;66345;42.694;23.346;2023-06-24T10:16:36;95478.59;;;42.73;19.74
77288;BME280;66345;42.694;23.346;2023-06-24T10:19:03;95456.50;;;44.03;18.63
77288;BME280;66345;42.694;23.346;2023-06-24T10:21:51;95458.56;;;42.35;20.58
77288;BME280;66345;42.694;23.346;2023-06-24T10:24:33;95462.22;;;41.04;22.20
77288;BME280;66345;42.694;23.346;2023-06-24T10:27:14;95454.63;;;38.83;24.48
77288;BME280;66345;42.694;23.346;2023-06-24T10:29:44;95448.69;;;41.06;21.87
77288;BME280;66345;42.694;23.346;2023-06-24T10:32:10;95445.94;;;39.61;24.07
77288;BME280;66345;42.694;23.346;2023-06-24T10:34:43;95443.09;;;37.07;27.53
77288;BME280;66345;42.694;23.346;2023-06-24T10:37:25;95432.88;;;37.43;26.27
77288;BME280;66345;42.694;23.346;2023-06-24T10:39:57;95435.91;;;35.83;28.01
77288;BME280;66345;42.694;23.346;2023-06-24T10:44:49;95423.78;;;34.46;30.88
77288;BME280;66345;42.694;23.346;2023-06-24T10:47:15;95416.63;;;34.45;31.18
77288;BME280;66345;42.694;23.346;2023-06-24T10:49:41;95413.06;;;34.00;31.14
77288;BME280;66345;42.694;23.346;2023-06-24T10:52:12;95400.84;;;34.21;30.15
77288;BME280;66345;42.694;23.346;2023-06-24T10:54:39;95402.13;;;33.58;32.19
77288;BME280;66345;42.694;23.346;2023-06-24T10:57:06;95404.22;;;32.60;33.63
77288;BME280;66345;42.694;23.346;2023-06-24T10:59:41;95402.31;;;33.11;32.09
77288;BME280;66345;42.694;23.346;2023-06-24T11:02:08;95393.78;;;33.04;32.07
77288;BME280;66345;42.694;23.346;2023-06-24T11:07:09;95396.78;;;32.14;33.97
77288;BME280;66345;42.694;23.346;2023-06-24T11:09:34;95393.47;;;32.38;32.57
77288;BME280;66345;42.694;23.346;2023-06-24T11:12:02;95387.41;;;32.91;32.04
77288;BME280;66345;42.694;23.346;2023-06-24T11:14:28;95387.53;;;32.95;31.89
77288;BME280;66345;42.694;23.346;2023-06-24T11:16:53;95389.50;;;33.15;31.67
77288;BME280;66345;42.694;23.346;2023-06-24T11:19:19;95394.53;;;33.34;31.30
77288;BME280;66345;42.694;23.346;2023-06-24T11:21:44;95392.72;;;33.38;32.04
77288;BME280;66345;42.694;23.346;2023-06-24T11:24:10;95394.25;;;33.48;30.77
77288;BME280;66345;42.694;23.346;2023-06-24T11:26:37;95391.97;;;33.71;31.27
77288;BME280;66345;42.694;23.346;2023-06-24T11:29:11;95393.97;;;33.61;31.02
77288;BME280;66345;42.694;23.346;2023-06-24T11:31:37;95396.53;;;32.45;31.47
77288;BME280;66345;42.694;23.346;2023-06-24T11:34:03;95390.63;;;32.84;31.21
77288;BME280;66345;42.694;23.346;2023-06-24T11:36:29;95386.44;;;33.37;32.18
77288;BME280;66345;42.694;23.346;2023-06-24T11:38:55;95387.28;;;33.29;30.13
77288;BME280;66345;42.694;23.346;2023-06-24T11:41:21;95384.13;;;33.60;29.28
77288;BME280;66345;42.694;23.346;2023-06-24T11:43:48;95387.88;;;33.89;28.70
77288;BME280;66345;42.694;23.346;2023-06-24T11:46:27;95388.06;;;33.09;29.89
77288;BME280;66345;42.694;23.346;2023-06-24T11:49:14;95378.91;;;32.75;30.52
77288;BME280;66345;42.694;23.346;2023-06-24T11:51:46;95366.47;;;32.99;30.69
77288;BME280;66345;42.694;23.346;2023-06-24T11:54:14;95358.97;;;33.08;31.24
77288;BME280;66345;42.694;23.346;2023-06-24T11:56:41;95354.53;;;33.36;31.50
77288;BME280;66345;42.694;23.346;2023-06-24T11:59:15;95353.47;;;33.50;31.35
77288;BME280;66345;42.694;23.346;2023-06-24T12:01:54;95345.69;;;33.10;30.85
77288;BME280;66345;42.694;23.346;2023-06-24T12:04:20;95346.66;;;32.84;31.08
77288;BME280;66345;42.694;23.346;2023-06-24T12:06:45;95337.38;;;32.98;32.17
77288;BME280;66345;42.694;23.346;2023-06-24T12:09:11;95329.66;;;33.12;30.94
77288;BME280;66345;42.694;23.346;2023-06-24T12:11:37;95326.88;;;33.54;29.40
77288;BME280;66345;42.694;23.346;2023-06-24T12:14:05;95324.56;;;33.44;30.56
77288;BME280;66345;42.694;23.346;2023-06-24T12:16:30;95320.00;;;33.60;32.04
77288;BME280;66345;42.694;23.346;2023-06-24T12:18:56;95317.66;;;33.83;31.97
77288;BME280;66345;42.694;23.346;2023-06-24T12:21:21;95324.25;;;33.36;31.07
77288;BME280;66345;42.694;23.346;2023-06-24T12:23:47;95324.16;;;33.12;31.40
77288;BME280;66345;42.694;23.346;2023-06-24T12:26:13;95324.00;;;32.67;32.63
77288;BME280;66345;42.694;23.346;2023-06-24T12:28:38;95321.09;;;32.84;33.16
77288;BME280;66345;42.694;23.346;2023-06-24T12:31:04;95316.00;;;32.53;32.70
77288;BME280;66345;42.694;23.346;2023-06-24T12:33:30;95313.81;;;32.38;32.85
77288;BME280;66345;42.694;23.346;2023-06-24T12:35:55;95321.41;;;31.94;33.91
77288;BME280;66345;42.694;23.346;2023-06-24T12:38:21;95324.38;;;31.71;34.41
77288;BME280;66345;42.694;23.346;2023-06-24T12:40:46;95325.81;;;31.86;33.67
77288;BME280;66345;42.694;23.346;2023-06-24T12:43:13;95337.72;;;31.99;34.54
77288;BME280;66345;42.694;23.346;2023-06-24T12:45:39;95349.38;;;32.34;34.17
77288;BME280;66345;42.694;23.346;2023-06-24T12:48:04;95367.66;;;31.57;34.55
77288;BME280;66345;42.694;23.346;2023-06-24T12:50:30;95374.13;;;31.61;34.83
77288;BME280;66345;42.694;23.346;2023-06-24T12:52:58;95379.44;;;31.58;34.75
77288;BME280;66345;42.694;23.346;2023-06-24T12:55:24;95392.00;;;31.59;34.39
77288;BME280;66345;42.694;23.346;2023-06-24T12:57:49;95391.06;;;31.55;35.07
77288;BME280;66345;42.694;23.346;2023-06-24T13:00:15;95384.47;;;31.30;35.87
77288;BME280;66345;42.694;23.346;2023-06-24T13:02:41;95384.28;;;31.69;36.99
77288;BME280;66345;42.694;23.346;2023-06-24T13:05:06;95377.00;;;31.04;36.44
77288;BME280;66345;42.694;23.346;2023-06-24T13:07:32;95359.13;;;31.15;36.90